sensor_id;sensor_type;location;lat;lon;timestamp;P1;durP1;ratioP1;P2;durP2;ratioP2
22983;SDS011;11658;48.908;9.140;2022-08-24T03:03:07;5.50;;;2.97;;
22983;SDS011;11658;48.908;9.140;2022-08-24T03:05:35;3.73;;;3.20;;
22983;SDS011;11658;48.908;9.140;2022-08-24T03:08:01;6.27;;;3.70;;
22983;SDS011;11658;48.908;9.140;2022-08-24T03:10:26;4.13;;;3.10;;
22983;SDS011;11658;48.908;9.140;2022-08-24T03:12:52;4.03;;;3.40;;
22983;SDS011;11658;48.908;9.140;2022-08-24T03:15:18;4.87;;;3.30;;
22983;SDS011;11658;48.908;9.140;2022-08-24T03:17:48;5.47;;;3.10;;
22983;SDS011;11658;48.908;9.140;2022-08-24T03:20:15;3.80;;;3.47;;
22983;SDS011;11658;48.908;9.140;2022-08-24T03:22:43;4.93;;;3.60;;
22983;SDS011;11658;48.908;9.140;2022-08-24T03:25:10;4.67;;;3.53;;
22983;SDS011;11658;48.908;9.140;2022-08-24T03:27:37;6.10;;;4.30;;
22983;SDS011;11658;48.908;9.140;2022-08-24T03:30:04;5.27;;;3.53;;
22983;SDS011;11658;48.908;9.140;2022-08-24T03:32:31;7.60;;;4.13;;
22983;SDS011;11658;48.908;9.140;2022-08-24T03:34:56;4.83;;;3.70;;
22983;SDS011;11658;48.908;9.140;2022-08-24T03:37:22;5.17;;;4.13;;
22983;SDS011;11658;48.908;9.140;2022-08-24T03:39:49;6.00;;;4.30;;
22983;SDS011;11658;48.908;9.140;2022-08-24T03:42:15;5.80;;;4.20;;
22983;SDS011;11658;48.908;9.140;2022-08-24T03:44:41;5.07;;;4.03;;
22983;SDS011;11658;48.908;9.140;2022-08-24T03:47:07;5.47;;;4.43;;
22983;SDS011;11658;48.908;9.140;2022-08-24T03:49:36;4.60;;;4.20;;
22983;SDS011;11658;48.908;9.140;2022-08-24T03:52:03;4.93;;;4.40;;
22983;SDS011;11658;48.908;9.140;2022-08-24T03:54:29;4.67;;;4.00;;
22983;SDS011;11658;48.908;9.140;2022-08-24T03:56:55;6.77;;;4.37;;
22983;SDS011;11658;48.908;9.140;2022-08-24T03:59:22;4.20;;;3.80;;
22983;SDS011;11658;48.908;9.140;2022-08-24T04:01:48;5.60;;;4.40;;
22983;SDS011;11658;48.908;9.140;2022-08-24T04:04:14;5.17;;;4.37;;
22983;SDS011;11658;48.908;9.140;2022-08-24T04:06:40;5.03;;;3.80;;
22983;SDS011;11658;48.908;9.140;2022-08-24T04:09:08;4.30;;;3.90;;
22983;SDS011;11658;48.908;9.140;2022-08-24T04:11:35;5.43;;;4.47;;
22983;SDS011;11658;48.908;9.140;2022-08-24T04:14:00;4.63;;;4.23;;
22983;SDS011;11658;48.908;9.140;2022-08-24T04:16:26;7.03;;;4.60;;
22983;SDS011;11658;48.908;9.140;2022-08-24T04:18:54;5.47;;;4.17;;
22983;SDS011;11658;48.908;9.140;2022-08-24T04:21:23;6.90;;;4.17;;
22983;SDS011;11658;48.908;9.140;2022-08-24T04:23:50;4.97;;;4.47;;
22983;SDS011;11658;48.908;9.140;2022-08-24T04:26:17;7.87;;;4.20;;
22983;SDS011;11658;48.908;9.140;2022-08-24T04:28:44;5.37;;;4.10;;
22983;SDS011;11658;48.908;9.140;2022-08-24T04:31:09;6.83;;;4.93;;
22983;SDS011;11658;48.908;9.140;2022-08-24T04:33:35;5.30;;;4.40;;
22983;SDS011;11658;48.908;9.140;2022-08-24T04:36:04;5.60;;;4.70;;
22983;SDS011;11658;48.908;9.140;2022-08-24T04:38:32;4.83;;;4.30;;
22983;SDS011;11658;48.908;9.140;2022-08-24T04:40:59;6.27;;;4.50;;
22983;SDS011;11658;48.908;9.140;2022-08-24T04:43:27;5.63;;;4.43;;
22983;SDS011;11658;48.908;9.140;2022-08-24T04:45:53;7.63;;;5.50;;
22983;SDS011;11658;48.908;9.140;2022-08-24T04:48:18;6.47;;;4.40;;
22983;SDS011;11658;48.908;9.140;2022-08-24T04:50:44;7.37;;;4.27;;
22983;SDS011;11658;48.908;9.140;2022-08-24T04:53:10;6.33;;;4.93;;
22983;SDS011;11658;48.908;9.140;2022-08-24T04:55:45;5.07;;;4.30;;
22983;SDS011;11658;48.908;9.140;2022-08-24T04:58:14;7.10;;;4.53;;
22983;SDS011;11658;48.908;9.140;2022-08-24T05:00:40;7.07;;;4.57;;
22983;SDS011;11658;48.908;9.140;2022-08-24T05:03:06;4.53;;;4.00;;
22983;SDS011;11658;48.908;9.140;2022-08-24T05:05:32;5.07;;;4.20;;
22983;SDS011;11658;48.908;9.140;2022-08-24T05:07:58;4.57;;;4.17;;
22983;SDS011;11658;48.908;9.140;2022-08-24T05:10:24;4.63;;;3.87;;
22983;SDS011;11658;48.908;9.140;2022-08-24T05:12:50;5.30;;;4.17;;
22983;SDS011;11658;48.908;9.140;2022-08-24T05:15:16;5.63;;;4.57;;
22983;SDS011;11658;48.908;9.140;2022-08-24T05:17:41;4.90;;;4.03;;
22983;SDS011;11658;48.908;9.140;2022-08-24T05:20:11;6.50;;;4.33;;
22983;SDS011;11658;48.908;9.140;2022-08-24T05:22:37;4.37;;;3.97;;
22983;SDS011;11658;48.908;9.140;2022-08-24T05:25:03;5.07;;;4.10;;
22983;SDS011;11658;48.908;9.140;2022-08-24T05:27:31;7.67;;;4.57;;
22983;SDS011;11658;48.908;9.140;2022-08-24T05:29:57;5.33;;;4.30;;
22983;SDS011;11658;48.908;9.140;2022-08-24T05:32:23;6.13;;;4.60;;
22983;SDS011;11658;48.908;9.140;2022-08-24T05:34:48;5.03;;;4.57;;
22983;SDS011;11658;48.908;9.140;2022-08-24T05:37:14;6.27;;;4.80;;
22983;SDS011;11658;48.908;9.140;2022-08-24T05:39:40;6.93;;;4.77;;
22983;SDS011;11658;48.908;9.140;2022-08-24T05:42:06;6.57;;;4.73;;
22983;SDS011;11658;48.908;9.140;2022-08-24T05:44:31;7.53;;;4.53;;
22983;SDS011;11658;48.908;9.140;2022-08-24T05:46:57;5.67;;;4.33;;
22983;SDS011;11658;48.908;9.140;2022-08-24T05:49:25;5.10;;;4.60;;
22983;SDS011;11658;48.908;9.140;2022-08-24T05:51:51;4.80;;;4.30;;
22983;SDS011;11658;48.908;9.140;2022-08-24T05:54:17;5.63;;;4.17;;
22983;SDS011;11658;48.908;9.140;2022-08-24T05:56:43;5.63;;;4.97;;
22983;SDS011;11658;48.908;9.140;2022-08-24T05:59:09;8.37;;;4.80;;
22983;SDS011;11658;48.908;9.140;2022-08-24T06:01:36;6.37;;;4.57;;
22983;SDS011;11658;48.908;9.140;2022-08-24T06:04:02;6.17;;;4.87;;
22983;SDS011;11658;48.908;9.140;2022-08-24T06:06:29;8.30;;;4.90;;
22983;SDS011;11658;48.908;9.140;2022-08-24T06:08:56;9.23;;;5.00;;
22983;SDS011;11658;48.908;9.140;2022-08-24T06:11:29;6.00;;;4.80;;
22983;SDS011;11658;48.908;9.140;2022-08-24T06:14:01;7.67;;;5.20;;
22983;SDS011;11658;48.908;9.140;2022-08-24T06:16:39;5.80;;;4.87;;
22983;SDS011;11658;48.908;9.140;2022-08-24T06:19:07;8.40;;;5.47;;
22983;SDS011;11658;48.908;9.140;2022-08-24T06:21:35;5.73;;;5.17;;
22983;SDS011;11658;48.908;9.140;2022-08-24T06:24:02;6.30;;;5.70;;
22983;SDS011;11658;48.908;9.140;2022-08-24T06:26:28;7.07;;;5.40;;
22983;SDS011;11658;48.908;9.140;2022-08-24T06:29:13;6.40;;;4.90;;
22983;SDS011;11658;48.908;9.140;2022-08-24T06:31:40;6.90;;;4.87;;
22983;SDS011;11658;48.908;9.140;2022-08-24T06:34:08;5.40;;;4.90;;
22983;SDS011;11658;48.908;9.140;2022-08-24T06:36:34;4.90;;;4.50;;
22983;SDS011;11658;48.908;9.140;2022-08-24T06:39:00;5.43;;;4.90;;
22983;SDS011;11658;48.908;9.140;2022-08-24T06:41:26;6.53;;;4.77;;
22983;SDS011;11658;48.908;9.140;2022-08-24T06:43:51;7.80;;;5.00;;
22983;SDS011;11658;48.908;9.140;2022-08-24T06:46:17;7.30;;;4.50;;
22983;SDS011;11658;48.908;9.140;2022-08-24T06:48:43;5.90;;;4.20;;
22983;SDS011;11658;48.908;9.140;2022-08-24T06:51:10;10.13;;;4.90;;
22983;SDS011;11658;48.908;9.140;2022-08-24T06:53:37;5.97;;;5.03;;
22983;SDS011;11658;48.908;9.140;2022-08-24T06:56:03;12.93;;;5.07;;
22983;SDS011;11658;48.908;9.140;2022-08-24T06:58:30;5.93;;;4.40;;
22983;SDS011;11658;48.908;9.140;2022-08-24T07:00:56;6.00;;;5.00;;
22983;SDS011;11658;48.908;9.140;2022-08-24T07:03:23;7.47;;;4.27;;
22983;SDS011;11658;48.908;9.140;2022-08-24T07:05:54;7.00;;;4.40;;
22983;SDS011;11658;48.908;9.140;2022-08-24T07:08:22;5.90;;;4.10;;
22983;SDS011;11658;48.908;9.140;2022-08-24T07:10:48;5.57;;;4.10;;
22983;SDS011;11658;48.908;9.140;2022-08-24T07:13:14;4.63;;;3.67;;
22983;SDS011;11658;48.908;9.140;2022-08-24T07:15:40;7.17;;;3.90;;
22983;SDS011;11658;48.908;9.140;2022-08-24T07:18:06;5.07;;;3.27;;
22983;SDS011;11658;48.908;9.140;2022-08-24T07:20:35;4.63;;;3.28;;
22983;SDS011;11658;48.908;9.140;2022-08-24T07:23:03;5.70;;;3.60;;
22983;SDS011;11658;48.908;9.140;2022-08-24T07:25:30;4.97;;;2.97;;
22983;SDS011;11658;48.908;9.140;2022-08-24T07:27:57;3.97;;;3.10;;
22983;SDS011;11658;48.908;9.140;2022-08-24T07:30:24;5.37;;;2.63;;
22983;SDS011;11658;48.908;9.140;2022-08-24T07:32:55;3.27;;;2.97;;
22983;SDS011;11658;48.908;9.140;2022-08-24T07:35:22;6.10;;;3.25;;
22983;SDS011;11658;48.908;9.140;2022-08-24T07:37:49;5.00;;;3.13;;
22983;SDS011;11658;48.908;9.140;2022-08-24T07:40:15;4.68;;;3.03;;
22983;SDS011;11658;48.908;9.140;2022-08-24T07:42:41;6.97;;;2.83;;
22983;SDS011;11658;48.908;9.140;2022-08-24T07:45:07;3.63;;;2.60;;
22983;SDS011;11658;48.908;9.140;2022-08-24T07:47:33;2.92;;;2.63;;
22983;SDS011;11658;48.908;9.140;2022-08-24T07:49:59;5.45;;;2.85;;
22983;SDS011;11658;48.908;9.140;2022-08-24T07:52:25;4.68;;;2.88;;
22983;SDS011;11658;48.908;9.140;2022-08-24T07:54:51;3.55;;;2.67;;
22983;SDS011;11658;48.908;9.140;2022-08-24T07:57:17;5.57;;;2.55;;
22983;SDS011;11658;48.908;9.140;2022-08-24T07:59:42;4.90;;;2.65;;
22983;SDS011;11658;48.908;9.140;2022-08-24T08:02:08;4.53;;;2.85;;
22983;SDS011;11658;48.908;9.140;2022-08-24T08:04:35;3.40;;;2.53;;
22983;SDS011;11658;48.908;9.140;2022-08-24T08:07:01;3.60;;;2.33;;
22983;SDS011;11658;48.908;9.140;2022-08-24T08:09:27;5.57;;;2.72;;
22983;SDS011;11658;48.908;9.140;2022-08-24T08:11:53;2.67;;;1.95;;
22983;SDS011;11658;48.908;9.140;2022-08-24T08:14:19;3.50;;;1.98;;
22983;SDS011;11658;48.908;9.140;2022-08-24T08:16:44;3.67;;;1.88;;
22983;SDS011;11658;48.908;9.140;2022-08-24T08:19:10;5.15;;;1.77;;
22983;SDS011;11658;48.908;9.140;2022-08-24T08:21:40;4.75;;;2.00;;
22983;SDS011;11658;48.908;9.140;2022-08-24T08:24:25;2.00;;;1.77;;
22983;SDS011;11658;48.908;9.140;2022-08-24T08:26:51;2.88;;;1.92;;
22983;SDS011;11658;48.908;9.140;2022-08-24T08:29:17;2.25;;;2.05;;
22983;SDS011;11658;48.908;9.140;2022-08-24T08:31:43;3.65;;;2.05;;
22983;SDS011;11658;48.908;9.140;2022-08-24T08:34:10;3.58;;;2.40;;
22983;SDS011;11658;48.908;9.140;2022-08-24T08:36:37;2.80;;;1.88;;
22983;SDS011;11658;48.908;9.140;2022-08-24T08:39:05;2.70;;;1.85;;
22983;SDS011;11658;48.908;9.140;2022-08-24T08:44:45;2.35;;;1.65;;
22983;SDS011;11658;48.908;9.140;2022-08-24T08:50:20;3.30;;;2.03;;
22983;SDS011;11658;48.908;9.140;2022-08-24T09:27:18;4.53;;;1.80;;
22983;SDS011;11658;48.908;9.140;2022-08-24T09:36:05;2.90;;;1.70;;
22983;SDS011;11658;48.908;9.140;2022-08-24T10:00:33;2.17;;;1.52;;
22983;SDS011;11658;48.908;9.140;2022-08-24T10:03:22;3.65;;;1.70;;
22983;SDS011;11658;48.908;9.140;2022-08-24T10:09:00;1.83;;;1.70;;
22983;SDS011;11658;48.908;9.140;2022-08-24T10:14:40;7.45;;;2.17;;
22983;SDS011;11658;48.908;9.140;2022-08-24T10:33:17;1.77;;;1.65;;
22983;SDS011;11658;48.908;9.140;2022-08-24T10:35:54;3.42;;;1.83;;
22983;SDS011;11658;48.908;9.140;2022-08-24T10:45:25;2.35;;;1.85;;
22983;SDS011;11658;48.908;9.140;2022-08-24T10:48:26;3.58;;;1.40;;
22983;SDS011;11658;48.908;9.140;2022-08-24T10:53:48;2.65;;;1.73;;
22983;SDS011;11658;48.908;9.140;2022-08-24T10:56:16;2.08;;;1.50;;
22983;SDS011;11658;48.908;9.140;2022-08-24T10:58:57;1.50;;;1.30;;
22983;SDS011;11658;48.908;9.140;2022-08-24T11:01:40;5.03;;;1.40;;
22983;SDS011;11658;48.908;9.140;2022-08-24T11:04:29;2.90;;;1.52;;
22983;SDS011;11658;48.908;9.140;2022-08-24T11:14:54;2.50;;;1.50;;
22983;SDS011;11658;48.908;9.140;2022-08-24T11:17:22;1.65;;;1.55;;
22983;SDS011;11658;48.908;9.140;2022-08-24T11:19:50;1.88;;;1.38;;
22983;SDS011;11658;48.908;9.140;2022-08-24T11:22:30;2.65;;;1.58;;
22983;SDS011;11658;48.908;9.140;2022-08-24T11:25:21;3.85;;;1.48;;
22983;SDS011;11658;48.908;9.140;2022-08-24T11:31:01;3.58;;;1.50;;
22983;SDS011;11658;48.908;9.140;2022-08-24T11:33:34;3.97;;;1.80;;
22983;SDS011;11658;48.908;9.140;2022-08-24T11:36:13;1.63;;;1.38;;
22983;SDS011;11658;48.908;9.140;2022-08-24T11:38:42;2.15;;;1.45;;
22983;SDS011;11658;48.908;9.140;2022-08-24T11:41:10;1.40;;;1.30;;
22983;SDS011;11658;48.908;9.140;2022-08-24T11:55:45;1.70;;;1.58;;
22983;SDS011;11658;48.908;9.140;2022-08-24T11:58:13;2.13;;;1.50;;
22983;SDS011;11658;48.908;9.140;2022-08-24T12:06:48;3.60;;;1.63;;
22983;SDS011;11658;48.908;9.140;2022-08-24T12:15:10;1.67;;;1.58;;
22983;SDS011;11658;48.908;9.140;2022-08-24T12:17:52;3.47;;;1.50;;
22983;SDS011;11658;48.908;9.140;2022-08-24T12:20:37;2.30;;;1.20;;
22983;SDS011;11658;48.908;9.140;2022-08-24T12:23:14;2.22;;;1.30;;
22983;SDS011;11658;48.908;9.140;2022-08-24T12:26:00;1.92;;;1.27;;
22983;SDS011;11658;48.908;9.140;2022-08-24T12:28:40;3.08;;;1.50;;
22983;SDS011;11658;48.908;9.140;2022-08-24T12:31:08;1.58;;;1.48;;
22983;SDS011;11658;48.908;9.140;2022-08-24T12:33:55;1.50;;;1.25;;
22983;SDS011;11658;48.908;9.140;2022-08-24T12:36:32;2.05;;;1.35;;
22983;SDS011;11658;48.908;9.140;2022-08-24T12:39:08;2.80;;;1.40;;
22983;SDS011;11658;48.908;9.140;2022-08-24T12:41:47;2.50;;;1.30;;
22983;SDS011;11658;48.908;9.140;2022-08-24T12:44:16;3.58;;;1.30;;
22983;SDS011;11658;48.908;9.140;2022-08-24T12:46:47;2.20;;;1.30;;
22983;SDS011;11658;48.908;9.140;2022-08-24T12:49:18;1.63;;;1.13;;
22983;SDS011;11658;48.908;9.140;2022-08-24T12:52:23;1.58;;;1.10;;
22983;SDS011;11658;48.908;9.140;2022-08-24T12:57:49;1.35;;;1.20;;
22983;SDS011;11658;48.908;9.140;2022-08-24T13:00:25;2.25;;;1.30;;
22983;SDS011;11658;48.908;9.140;2022-08-24T13:02:59;3.50;;;1.30;;
22983;SDS011;11658;48.908;9.140;2022-08-24T13:05:37;1.40;;;1.30;;
22983;SDS011;11658;48.908;9.140;2022-08-24T13:08:12;2.22;;;1.40;;
22983;SDS011;11658;48.908;9.140;2022-08-24T13:10:50;1.90;;;1.35;;
22983;SDS011;11658;48.908;9.140;2022-08-24T13:13:38;1.92;;;1.30;;
22983;SDS011;11658;48.908;9.140;2022-08-24T13:16:10;2.25;;;1.40;;
22983;SDS011;11658;48.908;9.140;2022-08-24T13:19:10;1.48;;;1.30;;
22983;SDS011;11658;48.908;9.140;2022-08-24T13:29:48;3.13;;;1.63;;
22983;SDS011;11658;48.908;9.140;2022-08-24T13:32:29;1.77;;;1.30;;
22983;SDS011;11658;48.908;9.140;2022-08-24T13:49:36;2.08;;;1.38;;
22983;SDS011;11658;48.908;9.140;2022-08-24T13:52:22;1.60;;;1.40;;
22983;SDS011;11658;48.908;9.140;2022-08-24T13:58:02;1.48;;;1.38;;
22983;SDS011;11658;48.908;9.140;2022-08-24T14:06:29;2.63;;;1.40;;
22983;SDS011;11658;48.908;9.140;2022-08-24T14:29:31;2.72;;;1.60;;
22983;SDS011;11658;48.908;9.140;2022-08-24T14:37:09;2.85;;;1.40;;
22983;SDS011;11658;48.908;9.140;2022-08-24T14:42:54;2.47;;;1.38;;
22983;SDS011;11658;48.908;9.140;2022-08-24T14:48:12;2.22;;;1.67;;
22983;SDS011;11658;48.908;9.140;2022-08-24T15:08:01;1.70;;;1.58;;
22983;SDS011;11658;48.908;9.140;2022-08-24T15:16:06;2.55;;;1.40;;
22983;SDS011;11658;48.908;9.140;2022-08-24T15:18:48;3.22;;;1.60;;
22983;SDS011;11658;48.908;9.140;2022-08-24T15:24:26;2.15;;;1.60;;
22983;SDS011;11658;48.908;9.140;2022-08-24T15:27:09;2.65;;;1.50;;
22983;SDS011;11658;48.908;9.140;2022-08-24T15:29:45;3.22;;;1.40;;
22983;SDS011;11658;48.908;9.140;2022-08-24T15:32:14;1.85;;;1.48;;
22983;SDS011;11658;48.908;9.140;2022-08-24T15:34:45;2.58;;;2.10;;
22983;SDS011;11658;48.908;9.140;2022-08-24T15:39:59;1.90;;;1.70;;
22983;SDS011;11658;48.908;9.140;2022-08-24T15:42:26;2.53;;;1.48;;
22983;SDS011;11658;48.908;9.140;2022-08-24T15:44:54;2.80;;;1.70;;
22983;SDS011;11658;48.908;9.140;2022-08-24T15:47:29;2.45;;;1.52;;
22983;SDS011;11658;48.908;9.140;2022-08-24T15:50:02;1.77;;;1.40;;
22983;SDS011;11658;48.908;9.140;2022-08-24T15:52:38;2.28;;;1.85;;
22983;SDS011;11658;48.908;9.140;2022-08-24T15:55:05;2.55;;;1.60;;
22983;SDS011;11658;48.908;9.140;2022-08-24T15:57:36;1.73;;;1.63;;
22983;SDS011;11658;48.908;9.140;2022-08-24T16:00:19;3.03;;;1.65;;
22983;SDS011;11658;48.908;9.140;2022-08-24T16:03:19;3.22;;;1.40;;
22983;SDS011;11658;48.908;9.140;2022-08-24T16:05:53;1.60;;;1.50;;
22983;SDS011;11658;48.908;9.140;2022-08-24T16:08:24;1.85;;;1.42;;
22983;SDS011;11658;48.908;9.140;2022-08-24T16:18:21;2.28;;;1.60;;
22983;SDS011;11658;48.908;9.140;2022-08-24T16:20:49;1.40;;;1.30;;
22983;SDS011;11658;48.908;9.140;2022-08-24T16:23:22;1.58;;;1.48;;
22983;SDS011;11658;48.908;9.140;2022-08-24T16:26:16;1.70;;;1.60;;
22983;SDS011;11658;48.908;9.140;2022-08-24T16:28:44;2.33;;;1.30;;
22983;SDS011;11658;48.908;9.140;2022-08-24T16:31:10;1.65;;;1.40;;
22983;SDS011;11658;48.908;9.140;2022-08-24T16:36:04;2.67;;;1.42;;
22983;SDS011;11658;48.908;9.140;2022-08-24T16:38:33;2.70;;;1.25;;
22983;SDS011;11658;48.908;9.140;2022-08-24T16:41:05;1.35;;;1.25;;
22983;SDS011;11658;48.908;9.140;2022-08-24T16:43:34;1.60;;;1.50;;
22983;SDS011;11658;48.908;9.140;2022-08-24T16:46:03;2.20;;;1.23;;
22983;SDS011;11658;48.908;9.140;2022-08-24T16:48:30;1.77;;;1.50;;
22983;SDS011;11658;48.908;9.140;2022-08-24T16:50:56;1.85;;;1.58;;
22983;SDS011;11658;48.908;9.140;2022-08-24T16:53:22;2.20;;;1.30;;
22983;SDS011;11658;48.908;9.140;2022-08-24T16:55:48;2.38;;;1.30;;
22983;SDS011;11658;48.908;9.140;2022-08-24T16:58:14;1.35;;;1.25;;
22983;SDS011;11658;48.908;9.140;2022-08-24T17:00:40;1.98;;;1.50;;
22983;SDS011;11658;48.908;9.140;2022-08-24T17:03:06;1.85;;;1.35;;
22983;SDS011;11658;48.908;9.140;2022-08-24T17:05:32;3.70;;;1.23;;
22983;SDS011;11658;48.908;9.140;2022-08-24T17:07:59;2.92;;;1.20;;
22983;SDS011;11658;48.908;9.140;2022-08-24T17:10:26;1.27;;;1.13;;
22983;SDS011;11658;48.908;9.140;2022-08-24T17:12:52;1.65;;;1.23;;
22983;SDS011;11658;48.908;9.140;2022-08-24T17:15:18;1.45;;;1.20;;
22983;SDS011;11658;48.908;9.140;2022-08-24T17:17:47;1.85;;;1.33;;
22983;SDS011;11658;48.908;9.140;2022-08-24T17:20:20;1.55;;;1.20;;
22983;SDS011;11658;48.908;9.140;2022-08-24T17:22:46;1.20;;;1.10;;
22983;SDS011;11658;48.908;9.140;2022-08-24T17:25:11;2.35;;;1.45;;
22983;SDS011;11658;48.908;9.140;2022-08-24T17:27:37;3.15;;;1.45;;
22983;SDS011;11658;48.908;9.140;2022-08-24T17:30:03;2.08;;;1.48;;
22983;SDS011;11658;48.908;9.140;2022-08-24T17:32:30;1.42;;;1.20;;
22983;SDS011;11658;48.908;9.140;2022-08-24T17:34:56;1.17;;;1.02;;
22983;SDS011;11658;48.908;9.140;2022-08-24T17:37:22;2.33;;;1.50;;
22983;SDS011;11658;48.908;9.140;2022-08-24T17:39:51;2.60;;;1.55;;
22983;SDS011;11658;48.908;9.140;2022-08-24T17:42:19;2.10;;;1.63;;
22983;SDS011;11658;48.908;9.140;2022-08-24T17:44:45;1.70;;;1.60;;
22983;SDS011;11658;48.908;9.140;2022-08-24T17:47:11;1.75;;;1.40;;
22983;SDS011;11658;48.908;9.140;2022-08-24T17:49:37;1.50;;;1.40;;
22983;SDS011;11658;48.908;9.140;2022-08-24T17:52:03;1.50;;;1.40;;
22983;SDS011;11658;48.908;9.140;2022-08-24T17:54:29;1.60;;;1.50;;
22983;SDS011;11658;48.908;9.140;2022-08-24T17:56:55;1.63;;;1.52;;
22983;SDS011;11658;48.908;9.140;2022-08-24T17:59:24;1.50;;;1.40;;
22983;SDS011;11658;48.908;9.140;2022-08-24T18:01:59;2.00;;;1.55;;
22983;SDS011;11658;48.908;9.140;2022-08-24T18:04:30;1.60;;;1.50;;
22983;SDS011;11658;48.908;9.140;2022-08-24T18:06:59;1.45;;;1.35;;
22983;SDS011;11658;48.908;9.140;2022-08-24T18:09:45;1.80;;;1.70;;
22983;SDS011;11658;48.908;9.140;2022-08-24T18:12:17;1.50;;;1.40;;
22983;SDS011;11658;48.908;9.140;2022-08-24T18:14:45;2.42;;;1.55;;
22983;SDS011;11658;48.908;9.140;2022-08-24T18:17:12;2.22;;;1.70;;
22983;SDS011;11658;48.908;9.140;2022-08-24T18:19:42;5.28;;;1.85;;
22983;SDS011;11658;48.908;9.140;2022-08-24T18:22:09;2.67;;;1.58;;
22983;SDS011;11658;48.908;9.140;2022-08-24T18:24:34;2.40;;;1.60;;
22983;SDS011;11658;48.908;9.140;2022-08-24T18:27:02;2.47;;;1.80;;
22983;SDS011;11658;48.908;9.140;2022-08-24T18:29:30;2.75;;;1.75;;
22983;SDS011;11658;48.908;9.140;2022-08-24T18:31:57;1.80;;;1.70;;
22983;SDS011;11658;48.908;9.140;2022-08-24T18:34:23;2.17;;;1.85;;
22983;SDS011;11658;48.908;9.140;2022-08-24T18:36:49;3.15;;;1.58;;
22983;SDS011;11658;48.908;9.140;2022-08-24T18:39:15;5.35;;;2.10;;
22983;SDS011;11658;48.908;9.140;2022-08-24T18:41:42;3.13;;;1.88;;
22983;SDS011;11658;48.908;9.140;2022-08-24T18:44:10;1.85;;;1.75;;
22983;SDS011;11658;48.908;9.140;2022-08-24T18:46:37;1.83;;;1.70;;
22983;SDS011;11658;48.908;9.140;2022-08-24T18:49:03;3.72;;;1.80;;
22983;SDS011;11658;48.908;9.140;2022-08-24T18:51:30;2.15;;;1.77;;
22983;SDS011;11658;48.908;9.140;2022-08-24T18:54:02;2.55;;;1.70;;
22983;SDS011;11658;48.908;9.140;2022-08-24T18:56:31;3.00;;;1.70;;
22983;SDS011;11658;48.908;9.140;2022-08-24T18:58:57;2.38;;;1.70;;
22983;SDS011;11658;48.908;9.140;2022-08-24T19:01:23;2.42;;;2.22;;
22983;SDS011;11658;48.908;9.140;2022-08-24T19:03:49;2.13;;;1.83;;
22983;SDS011;11658;48.908;9.140;2022-08-24T19:06:15;2.25;;;1.80;;
22983;SDS011;11658;48.908;9.140;2022-08-24T19:08:41;5.57;;;1.90;;
22983;SDS011;11658;48.908;9.140;2022-08-24T19:11:07;2.35;;;1.85;;
22983;SDS011;11658;48.908;9.140;2022-08-24T19:13:33;2.13;;;1.92;;
22983;SDS011;11658;48.908;9.140;2022-08-24T19:16:01;3.00;;;1.90;;
22983;SDS011;11658;48.908;9.140;2022-08-24T19:18:27;3.75;;;1.65;;
22983;SDS011;11658;48.908;9.140;2022-08-24T19:20:53;2.38;;;1.92;;
22983;SDS011;11658;48.908;9.140;2022-08-24T19:23:21;2.20;;;1.98;;
22983;SDS011;11658;48.908;9.140;2022-08-24T19:25:55;2.50;;;1.92;;
22983;SDS011;11658;48.908;9.140;2022-08-24T19:28:22;5.50;;;2.10;;
22983;SDS011;11658;48.908;9.140;2022-08-24T19:30:48;3.65;;;1.80;;
22983;SDS011;11658;48.908;9.140;2022-08-24T19:33:15;2.38;;;1.88;;
22983;SDS011;11658;48.908;9.140;2022-08-24T19:35:48;2.53;;;1.88;;
22983;SDS011;11658;48.908;9.140;2022-08-24T19:38:14;2.92;;;2.05;;
22983;SDS011;11658;48.908;9.140;2022-08-24T19:40:40;4.03;;;2.25;;
22983;SDS011;11658;48.908;9.140;2022-08-24T19:43:07;2.47;;;1.88;;
22983;SDS011;11658;48.908;9.140;2022-08-24T19:45:33;1.77;;;1.67;;
22983;SDS011;11658;48.908;9.140;2022-08-24T19:48:17;2.83;;;2.00;;
22983;SDS011;11658;48.908;9.140;2022-08-24T19:50:43;2.00;;;1.80;;
22983;SDS011;11658;48.908;9.140;2022-08-24T19:53:09;1.85;;;1.75;;
22983;SDS011;11658;48.908;9.140;2022-08-24T19:55:35;2.88;;;2.10;;
22983;SDS011;11658;48.908;9.140;2022-08-24T19:58:06;2.13;;;1.90;;
22983;SDS011;11658;48.908;9.140;2022-08-24T20:00:40;2.25;;;2.05;;
22983;SDS011;11658;48.908;9.140;2022-08-24T20:03:08;3.63;;;2.15;;
22983;SDS011;11658;48.908;9.140;2022-08-24T20:05:33;2.53;;;2.33;;
22983;SDS011;11658;48.908;9.140;2022-08-24T20:08:00;3.80;;;1.95;;
22983;SDS011;11658;48.908;9.140;2022-08-24T20:10:28;3.75;;;2.08;;
22983;SDS011;11658;48.908;9.140;2022-08-24T20:12:55;1.77;;;1.60;;
22983;SDS011;11658;48.908;9.140;2022-08-24T20:15:21;3.22;;;2.05;;
22983;SDS011;11658;48.908;9.140;2022-08-24T20:17:49;2.42;;;1.83;;
22983;SDS011;11658;48.908;9.140;2022-08-24T20:20:17;2.78;;;2.10;;
22983;SDS011;11658;48.908;9.140;2022-08-24T20:22:44;3.92;;;2.00;;
22983;SDS011;11658;48.908;9.140;2022-08-24T20:25:10;4.00;;;1.88;;
22983;SDS011;11658;48.908;9.140;2022-08-24T20:27:36;3.15;;;1.80;;
22983;SDS011;11658;48.908;9.140;2022-08-24T20:30:02;2.47;;;1.80;;
22983;SDS011;11658;48.908;9.140;2022-08-24T20:32:29;4.47;;;2.25;;
22983;SDS011;11658;48.908;9.140;2022-08-24T20:34:55;2.85;;;1.90;;
22983;SDS011;11658;48.908;9.140;2022-08-24T20:37:22;2.40;;;2.20;;
22983;SDS011;11658;48.908;9.140;2022-08-24T20:39:54;2.00;;;1.80;;
22983;SDS011;11658;48.908;9.140;2022-08-24T20:42:20;2.30;;;2.05;;
22983;SDS011;11658;48.908;9.140;2022-08-24T20:44:47;2.08;;;1.88;;
22983;SDS011;11658;48.908;9.140;2022-08-24T20:47:14;2.42;;;1.92;;
22983;SDS011;11658;48.908;9.140;2022-08-24T20:49:41;2.78;;;2.20;;
22983;SDS011;11658;48.908;9.140;2022-08-24T20:52:08;2.38;;;2.10;;
22983;SDS011;11658;48.908;9.140;2022-08-24T20:54:34;3.50;;;2.03;;
22983;SDS011;11658;48.908;9.140;2022-08-24T20:57:01;3.92;;;2.15;;
22983;SDS011;11658;48.908;9.140;2022-08-24T20:59:28;3.40;;;2.03;;
22983;SDS011;11658;48.908;9.140;2022-08-24T21:01:53;3.35;;;2.22;;
22983;SDS011;11658;48.908;9.140;2022-08-24T21:04:20;3.00;;;2.00;;
22983;SDS011;11658;48.908;9.140;2022-08-24T21:06:46;2.47;;;2.28;;
22983;SDS011;11658;48.908;9.140;2022-08-24T21:09:12;2.38;;;1.95;;
22983;SDS011;11658;48.908;9.140;2022-08-24T21:11:38;2.45;;;2.03;;
22983;SDS011;11658;48.908;9.140;2022-08-24T21:14:04;3.63;;;2.00;;
22983;SDS011;11658;48.908;9.140;2022-08-24T21:16:31;3.75;;;2.17;;
22983;SDS011;11658;48.908;9.140;2022-08-24T21:18:58;4.57;;;2.30;;
22983;SDS011;11658;48.908;9.140;2022-08-24T21:21:24;2.35;;;2.10;;
22983;SDS011;11658;48.908;9.140;2022-08-24T21:23:50;4.43;;;2.55;;
22983;SDS011;11658;48.908;9.140;2022-08-24T21:26:16;2.50;;;2.30;;
22983;SDS011;11658;48.908;9.140;2022-08-24T21:28:45;3.63;;;2.00;;
22983;SDS011;11658;48.908;9.140;2022-08-24T21:31:10;2.53;;;2.20;;
22983;SDS011;11658;48.908;9.140;2022-08-24T21:33:36;2.20;;;2.00;;
22983;SDS011;11658;48.908;9.140;2022-08-24T21:36:21;3.67;;;2.17;;
22983;SDS011;11658;48.908;9.140;2022-08-24T21:38:48;3.10;;;2.50;;
22983;SDS011;11658;48.908;9.140;2022-08-24T21:41:15;3.35;;;2.38;;
22983;SDS011;11658;48.908;9.140;2022-08-24T21:43:41;2.85;;;2.20;;
22983;SDS011;11658;48.908;9.140;2022-08-24T21:46:07;4.65;;;2.45;;
22983;SDS011;11658;48.908;9.140;2022-08-24T21:48:33;2.50;;;2.20;;
22983;SDS011;11658;48.908;9.140;2022-08-24T21:50:59;3.22;;;2.20;;
22983;SDS011;11658;48.908;9.140;2022-08-24T21:53:24;2.70;;;2.13;;
22983;SDS011;11658;48.908;9.140;2022-08-24T21:55:50;2.42;;;2.20;;
22983;SDS011;11658;48.908;9.140;2022-08-24T21:58:17;3.33;;;2.22;;
